Pacolet, South Carolina
Current Conditions -  °F | °C
As of 6:15 PM on Friday 28 Nov 2014 (Local Time) from KSPA Reporting Station
Clear Clear  
Wind Chill: 43°   Ceiling: Unl
Heat Index: 43°   Visibility: 10mi
Dew Point: 23°   Wind: 0mph
Humidity: 46%   Direction: NA
Pressure: 30.28"   Gusts: NA
Location:  34.9°N, 81.76°W
Report Text: KSPA 282315Z AUTO 00000KT 10SM CLR 06/M05 A3028 RMK AO2
Loading
Personal Weather Stations






























Interactive Weather Map New forecast layout! Learn more

10-Day Weather Forecast

Advertisements
Track Severe Weather on mobile